createdAt,value
2023-05-19T00:07:32.711Z,9.9667
2023-05-19T00:09:33.672Z,9.9625
2023-05-19T00:10:34.787Z,9.9276
2023-05-19T00:13:37.322Z,9.9505
2023-05-19T00:20:40.060Z,9.9521
2023-05-19T00:21:41.099Z,9.9244
2023-05-19T00:23:42.369Z,10.0059
2023-05-19T00:24:42.912Z,9.9801
2023-05-19T00:25:43.599Z,9.9797
2023-05-19T00:26:44.749Z,10.0252
2023-05-19T00:28:45.662Z,9.9082
2023-05-19T00:29:46.719Z,9.8262
2023-05-19T00:34:49.368Z,9.8821
2023-05-19T00:36:50.043Z,9.8353
2023-05-19T00:37:50.088Z,9.7996
2023-05-19T00:38:50.956Z,9.7954
2023-05-19T00:39:51.941Z,9.6936
2023-05-19T00:40:52.523Z,9.6506
2023-05-19T00:41:52.840Z,9.6682
2023-05-19T00:42:53.300Z,9.7056
2023-05-19T00:43:54.149Z,9.7117
2023-05-19T00:45:54.522Z,9.7277
2023-05-19T00:46:54.772Z,9.6587
2023-05-19T00:48:53.054Z,9.6468
2023-05-19T00:49:53.390Z,9.6448
2023-05-19T00:50:54.376Z,9.6107
2023-05-19T00:51:55.089Z,9.5972
2023-05-19T00:52:57.026Z,9.5503
2023-05-19T01:00:00.524Z,9.6767
2023-05-19T01:05:04.142Z,9.6893
2023-05-19T01:06:04.704Z,9.6279
2023-05-19T01:08:04.549Z,9.4747
2023-05-19T01:10:05.566Z,9.4113
2023-05-19T01:11:06.125Z,9.4792
2023-05-19T01:18:09.122Z,9.2176
2023-05-19T01:25:14.664Z,9.1463
2023-05-19T01:27:15.383Z,9.0910
2023-05-19T01:29:16.427Z,8.9539
2023-05-19T01:37:21.055Z,9.1014
2023-05-19T01:40:21.560Z,9.1805
2023-05-19T01:41:22.479Z,9.1539
2023-05-19T01:42:23.270Z,9.2295
2023-05-19T01:43:23.661Z,9.2075
2023-05-19T01:45:26.309Z,9.1957
2023-05-19T01:47:27.944Z,9.1927
2023-05-19T01:58:35.410Z,9.1894
2023-05-19T01:59:36.504Z,9.2534
2023-05-19T02:00:37.569Z,9.1880
2023-05-19T02:01:38.409Z,9.1727
2023-05-19T02:08:42.002Z,9.2238
2023-05-19T02:10:43.378Z,9.2659
2023-05-19T02:11:44.520Z,9.2203
2023-05-19T02:12:44.664Z,9.1730
2023-05-19T02:13:45.684Z,9.1728
2023-05-19T02:14:46.036Z,9.1222
2023-05-19T02:15:49.077Z,9.1142
2023-05-19T02:16:50.410Z,9.0908
2023-05-19T02:17:51.115Z,9.1203
2023-05-19T02:18:51.537Z,9.1256
2023-05-19T02:19:51.531Z,9.0920
2023-05-19T02:20:52.442Z,9.1596
2023-05-19T02:21:52.988Z,9.1896
2023-05-19T02:22:53.936Z,9.2037
2023-05-19T02:23:54.592Z,9.2022
2023-05-19T02:24:54.639Z,9.1472
2023-05-19T02:25:55.484Z,9.1407
2023-05-19T02:26:55.978Z,9.1350
2023-05-19T02:27:57.350Z,9.1720
2023-05-19T02:28:58.107Z,9.1163
2023-05-19T02:29:58.102Z,9.0596
2023-05-19T02:31:00.069Z,9.0749
2023-05-19T02:32:00.906Z,9.1296
2023-05-19T02:39:03.809Z,9.2308
2023-05-19T02:42:06.234Z,9.2421
2023-05-19T02:44:07.122Z,9.2089
2023-05-19T02:53:19.514Z,9.1088
2023-05-19T02:54:19.723Z,9.0515
2023-05-19T02:55:21.066Z,9.1252
2023-05-19T02:56:22.181Z,9.2014
2023-05-19T02:57:24.166Z,9.1287
2023-05-19T02:58:24.300Z,9.0973
2023-05-19T02:59:25.708Z,9.0799
2023-05-19T03:00:24.937Z,9.0521
2023-05-19T03:01:25.667Z,9.0090
2023-05-19T03:02:26.006Z,9.0446
2023-05-19T03:03:26.651Z,9.0217
2023-05-19T03:04:26.682Z,9.0618
2023-05-19T03:05:28.070Z,9.0851
2023-05-19T03:06:29.066Z,9.1216
2023-05-19T03:11:32.120Z,8.8966
2023-05-19T03:12:32.565Z,8.9420
2023-05-19T03:13:33.489Z,9.0094
2023-05-19T03:15:34.080Z,9.0182
2023-05-19T03:16:35.248Z,9.0578
2023-05-19T03:17:35.593Z,8.9890
2023-05-19T03:18:35.699Z,8.9145
2023-05-19T03:19:37.109Z,9.0058
2023-05-19T03:20:40.922Z,8.9417
2023-05-19T03:21:39.976Z,8.8932
2023-05-19T03:25:42.301Z,8.9477
2023-05-19T03:27:43.017Z,8.9104
2023-05-19T03:28:43.569Z,8.8670
2023-05-19T03:30:43.371Z,8.8980
2023-05-19T03:31:43.492Z,8.8662
2023-05-19T03:32:43.768Z,8.8217
2023-05-19T03:33:44.557Z,8.7793
2023-05-19T03:35:45.741Z,8.7024
2023-05-19T03:36:46.068Z,8.7073
2023-05-19T03:37:46.692Z,8.8005
2023-05-19T03:38:47.801Z,8.7018
2023-05-19T03:44:50.264Z,8.9654
2023-05-19T03:45:50.926Z,8.9333
2023-05-19T03:46:52.717Z,8.8765
2023-05-19T03:47:53.412Z,8.8851
2023-05-19T03:48:54.979Z,8.8523
2023-05-19T03:53:55.600Z,8.5257
2023-05-19T03:54:57.020Z,8.4906
2023-05-19T04:04:01.936Z,8.6516
2023-05-19T04:09:04.212Z,8.6791
2023-05-19T04:10:04.570Z,8.6923
2023-05-19T04:12:07.721Z,8.7053
2023-05-19T04:14:09.666Z,8.6193
2023-05-19T04:15:09.802Z,8.5658
2023-05-19T04:16:11.425Z,8.5089
2023-05-19T04:18:11.872Z,8.4854
2023-05-19T04:20:13.182Z,8.5370
2023-05-19T04:21:13.864Z,8.6477
2023-05-19T04:22:15.057Z,8.7213
2023-05-19T04:23:15.814Z,8.6932
2023-05-19T04:24:17.327Z,8.7138
2023-05-19T04:25:17.490Z,8.7129
2023-05-19T04:26:17.964Z,8.6760
2023-05-19T04:27:19.163Z,8.7229
2023-05-19T04:30:21.929Z,8.7486
2023-05-19T04:31:22.051Z,8.7228
2023-05-19T04:32:22.851Z,8.7415
2023-05-19T04:33:24.270Z,8.7433
2023-05-19T04:34:25.318Z,8.7586
2023-05-19T04:38:26.847Z,8.9755
2023-05-19T04:39:27.489Z,9.0390
2023-05-19T04:40:27.806Z,9.0132
2023-05-19T04:41:28.759Z,9.0984
2023-05-19T04:42:29.883Z,9.1417
2023-05-19T04:43:30.160Z,9.1814
2023-05-19T04:44:31.559Z,9.1639
2023-05-19T04:45:31.738Z,9.1146
2023-05-19T04:47:34.627Z,9.1974
2023-05-19T04:53:39.282Z,9.3022
2023-05-19T04:54:39.511Z,9.3235
2023-05-19T04:55:39.873Z,9.3936
2023-05-19T04:56:40.443Z,9.3902
2023-05-19T05:04:43.595Z,9.6478
2023-05-19T05:05:45.365Z,9.6028
2023-05-19T05:07:45.593Z,9.6551
2023-05-19T05:08:46.688Z,9.7507
2023-05-19T05:09:47.093Z,9.6215
2023-05-19T05:10:47.706Z,9.7000
2023-05-19T05:22:54.908Z,10.0883
2023-05-19T05:23:56.150Z,9.9953
2023-05-19T05:24:56.251Z,10.0359
2023-05-19T05:25:56.650Z,10.0929
2023-05-19T05:28:59.807Z,9.7984
2023-05-19T05:30:00.298Z,9.7950
2023-05-19T05:31:00.518Z,9.7841
2023-05-19T05:32:00.927Z,9.7593
2023-05-19T05:33:01.270Z,9.6865
2023-05-19T05:34:02.333Z,9.6049
2023-05-19T05:35:03.404Z,9.6335
2023-05-19T05:36:04.882Z,9.5702
2023-05-19T05:37:06.278Z,9.5449
2023-05-19T05:38:07.047Z,9.5128
2023-05-19T05:39:08.397Z,9.5643
2023-05-19T05:40:08.807Z,9.5713
2023-05-19T05:41:09.856Z,9.5713
2023-05-19T05:42:11.063Z,9.4911
2023-05-19T05:43:12.534Z,9.4859
2023-05-19T05:44:12.767Z,9.4411
2023-05-19T05:45:13.212Z,9.4521
2023-05-19T05:56:20.348Z,9.4399
2023-05-19T05:57:20.813Z,9.3300
2023-05-19T05:58:21.726Z,9.3594
2023-05-19T05:59:22.713Z,9.3468
2023-05-19T06:01:22.168Z,9.4054
2023-05-19T06:02:23.786Z,9.3387
2023-05-19T06:03:24.719Z,9.2522
2023-05-19T06:04:26.005Z,9.2688
2023-05-19T06:05:26.446Z,9.2883
2023-05-19T06:06:27.486Z,9.3097
2023-05-19T06:07:28.007Z,9.2659
2023-05-19T06:11:07.230Z,9.2399
2023-05-19T06:12:08.276Z,9.2943
2023-05-19T06:13:08.890Z,9.2557
2023-05-19T06:14:09.516Z,9.2248
2023-05-19T06:15:09.782Z,9.2002
2023-05-19T06:17:12.830Z,9.2421
2023-05-19T06:18:13.850Z,9.2474
2023-05-19T06:23:18.183Z,9.1646
2023-05-19T06:24:18.853Z,9.1405
2023-05-19T06:25:18.878Z,9.1188
2023-05-19T06:29:21.377Z,9.1654
2023-05-19T06:30:21.836Z,9.1637
2023-05-19T06:31:22.930Z,9.1750
2023-05-19T06:32:22.919Z,9.1489
2023-05-19T06:33:25.556Z,9.1782
2023-05-19T06:34:25.681Z,9.1743
2023-05-19T06:39:30.351Z,9.1773
2023-05-19T06:40:31.498Z,9.1697
2023-05-19T06:42:32.022Z,9.1739
2023-05-19T06:43:32.396Z,9.2014
2023-05-19T06:44:33.477Z,9.2085
2023-05-19T06:45:34.216Z,9.2446
2023-05-19T06:46:34.346Z,9.1983
2023-05-19T06:47:35.498Z,9.2165
2023-05-19T06:48:35.784Z,9.2106
2023-05-19T06:49:37.761Z,9.2030
2023-05-19T06:54:39.136Z,9.1879
2023-05-19T06:55:54.356Z,9.2493
2023-05-19T06:56:40.725Z,9.3165
2023-05-19T06:58:43.640Z,9.2433
2023-05-19T06:59:43.934Z,9.3012
2023-05-19T07:00:44.883Z,9.2938
2023-05-19T07:09:47.200Z,9.4904
2023-05-19T07:12:48.598Z,9.7343
2023-05-19T07:15:49.701Z,9.9279
2023-05-19T07:16:50.253Z,9.7900
2023-05-19T07:17:52.120Z,9.8110
2023-05-19T07:18:52.507Z,9.8773
2023-05-19T07:19:53.810Z,9.6141
2023-05-19T07:20:54.102Z,9.7216
2023-05-19T07:21:55.620Z,9.8127
2023-05-19T07:22:55.903Z,9.6963
2023-05-19T07:23:57.113Z,9.6783
2023-05-19T07:26:58.849Z,9.7390
2023-05-19T07:27:59.266Z,9.7530
2023-05-19T07:29:12.203Z,9.9351
2023-05-19T07:30:02.156Z,10.0501
2023-05-19T07:31:03.278Z,10.1639
2023-05-19T07:32:04.074Z,10.1725
2023-05-19T07:33:05.340Z,10.1720
2023-05-19T07:34:06.244Z,10.0909
2023-05-19T07:35:06.575Z,10.1128
2023-05-19T07:36:07.984Z,9.8805
2023-05-19T07:39:11.295Z,10.0949
2023-05-19T07:40:12.006Z,10.1360
2023-05-19T07:41:13.022Z,10.3644
2023-05-19T07:42:13.514Z,10.2382
2023-05-19T07:43:14.702Z,10.0779
2023-05-19T07:44:15.581Z,10.2762
2023-05-19T07:45:16.710Z,10.2644
2023-05-19T07:49:18.357Z,10.6567
2023-05-19T07:50:19.310Z,10.7817
2023-05-19T07:51:19.558Z,10.6588
2023-05-19T07:54:21.657Z,10.7925
2023-05-19T07:55:22.106Z,11.0865
2023-05-19T07:56:22.823Z,11.0198
2023-05-19T07:57:23.207Z,10.9935
2023-05-19T07:58:24.073Z,11.1840
2023-05-19T07:59:25.427Z,10.8948
2023-05-19T08:00:26.070Z,11.0851
2023-05-19T08:01:27.134Z,10.6736
2023-05-19T08:02:27.670Z,10.9102
2023-05-19T08:04:29.651Z,10.8329
2023-05-19T08:05:30.303Z,11.1475
2023-05-19T08:06:30.867Z,10.9446
2023-05-19T08:07:31.354Z,10.6302
2023-05-19T08:12:33.891Z,10.6072
2023-05-19T08:13:34.669Z,10.6562
2023-05-19T08:14:34.962Z,10.5365
2023-05-19T08:15:35.478Z,10.6062
2023-05-19T08:16:36.021Z,10.6275
2023-05-19T08:17:36.928Z,10.5099
2023-05-19T08:18:37.766Z,10.7857
2023-05-19T08:21:38.737Z,10.7124
2023-05-19T08:22:38.971Z,10.7062
2023-05-19T08:23:39.902Z,10.9343
2023-05-19T08:24:40.705Z,10.9169
2023-05-19T08:25:42.358Z,10.9021
2023-05-19T08:26:43.232Z,10.8538
2023-05-19T08:27:44.022Z,10.8426
2023-05-19T08:28:44.969Z,10.6817
2023-05-19T08:29:45.977Z,10.9229
2023-05-19T08:33:47.502Z,10.6040
2023-05-19T08:34:47.883Z,10.7275
2023-05-19T08:35:47.922Z,10.8649
2023-05-19T08:36:49.060Z,10.5893
2023-05-19T08:37:49.155Z,10.6190
2023-05-19T08:38:50.117Z,10.5702
2023-05-19T08:39:51.327Z,10.5728
2023-05-19T08:40:51.735Z,10.5964
2023-05-19T08:52:19.439Z,11.2651
2023-05-19T08:54:19.789Z,11.3032
2023-05-19T08:55:20.777Z,11.6752
2023-05-19T08:56:21.872Z,11.7936
2023-05-19T08:57:22.927Z,11.7878
2023-05-19T08:58:23.765Z,12.0400
2023-05-19T08:59:24.600Z,11.6443
2023-05-19T09:00:25.689Z,11.9891
2023-05-19T09:01:25.938Z,11.6565
2023-05-19T09:02:27.057Z,12.0126
2023-05-19T09:03:28.691Z,12.1971
2023-05-19T09:04:29.994Z,11.9557
2023-05-19T09:05:29.465Z,11.7650
2023-05-19T09:06:30.187Z,11.4349
2023-05-19T09:07:31.459Z,11.5897
2023-05-19T09:08:32.582Z,11.6065
2023-05-19T09:09:32.753Z,11.8299
2023-05-19T09:10:33.476Z,11.8454
2023-05-19T09:11:33.616Z,11.8902
2023-05-19T09:12:34.824Z,11.6366
2023-05-19T09:13:36.007Z,11.1676
2023-05-19T09:14:37.208Z,11.0176
2023-05-19T09:32:51.180Z,11.0157
2023-05-19T09:33:51.426Z,11.2699
2023-05-19T09:34:52.551Z,10.9021
2023-05-19T09:35:52.684Z,10.9069
2023-05-19T09:36:53.861Z,11.0318
2023-05-19T09:37:54.132Z,11.0170
2023-05-19T09:38:55.160Z,11.2125
2023-05-19T09:39:56.112Z,11.6851
2023-05-19T09:40:57.048Z,11.7604
2023-05-19T09:41:58.065Z,11.8960
2023-05-19T09:42:59.133Z,11.9786
2023-05-19T09:44:00.189Z,11.5773
2023-05-19T09:45:01.270Z,11.9069
2023-05-19T09:46:02.288Z,11.8786
2023-05-19T09:47:03.246Z,12.1177
2023-05-19T09:48:04.171Z,11.9285
2023-05-19T09:49:04.186Z,11.7813
2023-05-19T09:50:05.089Z,11.8369
2023-05-19T09:51:06.206Z,12.1002
2023-05-19T09:52:07.214Z,12.5495
2023-05-19T09:53:08.191Z,12.2843
2023-05-19T09:54:08.298Z,12.1609
2023-05-19T09:55:09.342Z,12.3754
2023-05-19T09:56:09.365Z,12.2384
2023-05-19T09:57:10.384Z,12.4484
2023-05-19T10:20:28.893Z,12.5639
2023-05-19T10:21:30.063Z,12.6554
2023-05-19T10:22:31.270Z,11.9930
2023-05-19T10:23:32.049Z,12.3466
2023-05-19T10:24:33.162Z,12.3799
2023-05-19T10:25:34.425Z,12.0581
2023-05-19T10:26:34.331Z,12.1302
2023-05-19T10:27:35.271Z,12.2261
2023-05-19T10:28:36.190Z,12.3086
2023-05-19T10:29:37.098Z,12.6665
2023-05-19T10:30:38.150Z,12.9722
2023-05-19T10:31:39.319Z,12.9021
2023-05-19T10:32:39.397Z,12.8011
2023-05-19T10:33:40.432Z,12.5977
2023-05-19T10:34:41.277Z,13.0014
2023-05-19T10:35:42.199Z,13.1262
2023-05-19T10:36:42.266Z,12.8827
2023-05-19T10:37:43.449Z,12.8469
2023-05-19T10:38:44.527Z,12.7911
2023-05-19T10:39:45.094Z,12.5758
2023-05-19T10:40:46.093Z,12.4912
2023-05-19T10:41:47.063Z,12.3290
2023-05-19T10:42:46.928Z,12.5481
2023-05-19T10:43:48.182Z,12.5910
2023-05-19T10:44:48.733Z,12.6617
2023-05-19T10:45:48.944Z,12.8248
2023-05-19T10:46:49.474Z,13.1213
2023-05-19T11:03:04.226Z,13.4812
2023-05-19T11:04:05.989Z,13.2874
2023-05-19T11:05:06.457Z,13.5980
2023-05-19T11:06:07.481Z,13.4934
2023-05-19T11:07:08.644Z,13.2936
2023-05-19T11:08:09.668Z,13.1256
2023-05-19T11:09:10.695Z,12.9111
2023-05-19T11:10:10.895Z,12.9923
2023-05-19T11:11:11.829Z,13.0797
2023-05-19T11:12:12.754Z,13.0842
2023-05-19T11:13:14.909Z,13.0271
2023-05-19T11:14:14.737Z,13.1551
2023-05-19T11:15:15.718Z,13.5205
2023-05-19T11:16:16.889Z,13.7397
2023-05-19T11:17:18.078Z,13.4378
2023-05-19T11:18:18.785Z,13.2548
2023-05-19T11:19:20.002Z,13.4645
2023-05-19T11:20:20.109Z,13.9303
2023-05-19T11:21:21.227Z,14.0905
2023-05-19T11:22:22.152Z,14.2982
2023-05-19T11:23:23.442Z,14.1092
2023-05-19T11:24:23.448Z,13.9401
2023-05-19T11:25:24.435Z,13.9318
2023-05-19T11:26:25.271Z,13.5134
2023-05-19T11:27:26.153Z,13.6605
2023-05-19T11:28:26.992Z,13.5567
2023-05-19T11:29:27.858Z,13.1329
2023-05-19T11:30:28.849Z,13.1160
2023-05-19T11:31:29.777Z,12.8546
2023-05-19T11:32:30.955Z,12.9009
2023-05-19T11:33:30.813Z,12.9458
2023-05-19T11:34:31.673Z,13.2880
2023-05-19T11:35:35.444Z,13.2453
2023-05-19T11:36:32.809Z,13.4698
2023-05-19T11:37:33.576Z,14.0793
2023-05-19T11:38:34.388Z,14.1490
2023-05-19T11:39:35.401Z,14.2179
2023-05-19T11:40:36.222Z,13.9461
2023-05-19T11:41:37.267Z,14.0993
2023-05-19T11:42:38.268Z,15.0076
2023-05-19T11:43:39.275Z,15.3602
2023-05-19T11:44:40.482Z,15.6031
2023-05-19T11:45:41.188Z,15.0658
2023-05-19T11:46:42.352Z,14.7588
2023-05-19T11:48:00.895Z,15.2385
2023-05-19T11:48:44.021Z,14.7665
2023-05-19T11:49:44.862Z,14.6999
2023-05-19T11:50:45.896Z,14.3052
2023-05-19T11:51:47.015Z,14.5341
2023-05-19T11:52:48.180Z,14.7151
2023-05-19T11:53:48.381Z,14.8085
2023-05-19T11:54:49.442Z,15.1985
2023-05-19T11:55:50.932Z,14.7542
2023-05-19T11:56:50.775Z,15.0922
2023-05-19T11:58:02.903Z,15.5010
2023-05-19T11:58:52.374Z,15.0491
2023-05-19T11:59:53.392Z,15.3581
2023-05-19T12:00:54.448Z,15.5887
2023-05-19T12:01:54.612Z,15.7978
2023-05-19T12:02:54.707Z,15.9443
2023-05-19T12:03:54.796Z,15.5470
2023-05-19T12:04:55.831Z,16.2469
2023-05-19T12:05:56.618Z,15.9042
2023-05-19T12:06:56.459Z,15.5005
2023-05-19T12:07:57.674Z,16.0535
2023-05-19T12:08:58.609Z,15.4068
2023-05-19T12:09:59.670Z,15.2571
2023-05-19T12:11:00.531Z,15.2179
2023-05-19T12:12:01.493Z,15.0587
2023-05-19T12:13:02.441Z,14.9402
2023-05-19T12:14:03.411Z,14.8405
2023-05-19T12:15:04.334Z,15.1888
2023-05-19T12:16:05.402Z,14.7405
2023-05-19T12:17:06.533Z,14.8160
2023-05-19T12:18:07.748Z,14.8502
2023-05-19T12:19:08.678Z,14.9998
2023-05-19T12:20:09.916Z,15.0667
2023-05-19T12:21:09.877Z,14.8027
2023-05-19T12:22:10.058Z,14.9430
2023-05-19T12:23:10.082Z,15.3188
2023-05-19T12:24:10.878Z,15.4787
2023-05-19T12:25:11.778Z,15.1991
2023-05-19T12:26:11.881Z,15.4209
2023-05-19T12:27:12.987Z,14.9460
2023-05-19T12:28:14.808Z,15.0710
2023-05-19T12:38:22.091Z,15.6640
2023-05-19T12:39:22.985Z,15.9246
2023-05-19T12:40:24.056Z,15.9939
2023-05-19T12:41:25.228Z,15.6771
2023-05-19T12:42:26.152Z,15.6758
2023-05-19T12:43:27.320Z,15.1984
2023-05-19T12:44:28.301Z,15.3227
2023-05-19T12:45:29.174Z,14.9700
2023-05-19T12:46:30.406Z,15.0256
2023-05-19T12:47:31.353Z,15.1642
2023-05-19T12:48:31.436Z,15.3048
2023-05-19T12:49:32.518Z,14.8296
2023-05-19T12:50:32.966Z,14.7748
2023-05-19T12:51:33.494Z,14.7783
2023-05-19T12:52:34.149Z,14.9782
2023-05-19T12:53:35.080Z,14.8932
2023-05-19T12:54:36.296Z,14.7337
2023-05-19T12:57:37.457Z,15.3477
2023-05-19T12:58:37.496Z,15.6450
2023-05-19T12:59:38.992Z,15.2120
2023-05-19T13:00:39.150Z,15.1847
2023-05-19T13:01:40.581Z,15.3739
2023-05-19T13:02:41.543Z,14.9801
2023-05-19T13:03:42.060Z,15.2597
2023-05-19T13:04:43.173Z,15.7068
2023-05-19T13:05:44.218Z,15.7113
2023-05-19T13:06:45.168Z,15.6863
2023-05-19T13:07:45.979Z,15.3091
2023-05-19T13:08:46.823Z,15.7669
2023-05-19T13:09:47.055Z,15.5062
2023-05-19T13:10:47.935Z,15.9266
2023-05-19T13:11:48.835Z,15.2023
2023-05-19T13:12:49.849Z,15.4716
2023-05-19T13:13:49.962Z,15.4427
2023-05-19T13:14:51.660Z,14.8022
2023-05-19T13:15:51.191Z,14.4776
2023-05-19T13:16:52.275Z,14.3083
2023-05-19T13:17:53.273Z,14.2911
2023-05-19T13:18:53.670Z,14.1464
2023-05-19T13:19:54.382Z,14.0478
2023-05-19T13:20:55.314Z,14.1047
2023-05-19T13:21:56.467Z,14.1360
2023-05-19T13:22:57.418Z,14.0418
2023-05-19T13:23:58.486Z,14.1659
2023-05-19T13:24:59.442Z,14.1927
2023-05-19T13:26:00.053Z,14.4051
2023-05-19T13:27:00.263Z,14.4641
2023-05-19T13:28:01.560Z,14.5547
2023-05-19T13:29:02.502Z,14.5996
2023-05-19T13:30:03.418Z,14.6340
2023-05-19T13:31:04.425Z,14.7288
2023-05-19T13:32:04.397Z,14.6287
2023-05-19T13:33:05.652Z,14.5445
2023-05-19T13:34:06.204Z,14.7901
2023-05-19T13:35:07.004Z,14.6090
2023-05-19T13:36:07.378Z,14.2862
2023-05-19T13:48:16.355Z,14.5141
2023-05-19T13:49:17.360Z,14.4841
2023-05-19T13:50:18.344Z,14.5104
2023-05-19T13:51:19.302Z,14.6248
2023-05-19T13:52:20.380Z,14.7838
2023-05-19T13:53:21.450Z,14.8010
2023-05-19T13:54:22.677Z,14.9336
2023-05-19T13:55:23.729Z,14.7550
2023-05-19T13:56:24.555Z,14.9176
2023-05-19T13:57:25.505Z,15.0710
2023-05-19T13:58:26.438Z,14.8173
2023-05-19T13:59:27.448Z,14.4908
2023-05-19T14:00:27.865Z,14.4786
2023-05-19T14:01:28.022Z,14.4002
2023-05-19T14:13:43.685Z,13.8058
2023-05-19T14:14:43.699Z,13.6541
2023-05-19T14:15:43.794Z,13.6424
2023-05-19T14:16:45.300Z,13.6464
2023-05-19T14:17:46.390Z,13.7151
2023-05-19T14:18:46.475Z,13.7579
2023-05-19T14:19:47.658Z,13.7332
2023-05-19T14:20:48.676Z,13.7105
2023-05-19T14:21:49.687Z,13.7277
2023-05-19T14:22:50.675Z,13.7948
2023-05-19T14:23:51.919Z,13.8988
2023-05-19T14:24:52.680Z,13.9435
2023-05-19T14:25:53.777Z,14.0227
2023-05-19T14:26:53.899Z,13.9873
2023-05-19T14:27:55.044Z,13.9804
2023-05-19T14:28:56.247Z,13.9861
2023-05-19T14:29:57.138Z,14.1606
2023-05-19T14:30:57.272Z,13.9815
2023-05-19T14:31:58.555Z,13.9348
2023-05-19T14:32:59.589Z,13.8915
2023-05-19T14:34:00.786Z,13.9198
2023-05-19T14:35:01.727Z,13.8985
2023-05-19T14:36:02.783Z,13.9164
2023-05-19T14:37:03.840Z,13.8165
2023-05-19T14:38:04.998Z,13.8094
2023-05-19T14:39:05.771Z,13.8393
2023-05-19T14:40:08.813Z,13.8067
2023-05-19T14:45:10.230Z,13.9526
2023-05-19T15:16:34.241Z,14.1135
2023-05-19T15:17:35.498Z,14.1190
2023-05-19T15:18:36.662Z,14.1368
2023-05-19T15:19:36.894Z,14.0324
2023-05-19T15:20:40.278Z,14.0051
2023-05-19T15:21:40.550Z,13.9227
2023-05-19T15:23:41.261Z,13.7295
2023-05-19T15:28:03.122Z,13.3104
2023-05-19T15:29:04.370Z,13.3176
2023-05-19T15:30:05.139Z,13.2101
2023-05-19T15:32:06.197Z,13.1154
2023-05-19T15:34:07.636Z,13.1019
2023-05-19T15:35:07.938Z,13.1102
2023-05-19T15:36:08.221Z,13.1226
2023-05-19T15:37:09.674Z,13.1109
2023-05-19T15:38:09.366Z,13.0734
2023-05-19T15:39:10.697Z,13.1107
2023-05-19T15:40:11.974Z,13.0880
2023-05-19T15:46:15.456Z,13.0059
2023-05-19T15:47:15.968Z,13.1555
2023-05-19T15:48:17.960Z,13.1824
2023-05-19T15:49:18.248Z,13.2048
2023-05-19T15:52:21.286Z,13.0893
2023-05-19T15:53:22.558Z,13.1061
2023-05-19T15:54:23.332Z,13.1065
2023-05-19T15:55:24.150Z,13.1678
2023-05-19T15:56:24.263Z,13.2112
2023-05-19T15:57:25.356Z,13.2688
2023-05-19T15:58:26.185Z,13.3608
2023-05-19T15:59:27.389Z,13.3110
2023-05-19T16:01:28.122Z,13.3643
2023-05-19T16:03:27.714Z,13.3964
2023-05-19T16:04:28.788Z,13.3540
2023-05-19T16:05:29.093Z,13.4102
2023-05-19T16:06:30.079Z,13.4764
2023-05-19T16:07:30.475Z,13.4984
2023-05-19T16:08:31.009Z,13.4888
2023-05-19T16:09:32.227Z,13.5382
2023-05-19T16:10:32.898Z,13.5105
2023-05-19T16:12:33.824Z,13.4237
2023-05-19T16:13:35.112Z,13.4772
2023-05-19T16:15:35.602Z,13.5053
2023-05-19T16:16:37.052Z,13.4800
2023-05-19T16:17:36.848Z,13.5241
2023-05-19T16:18:38.378Z,13.5569
2023-05-19T16:19:38.385Z,13.6661
2023-05-19T16:21:39.128Z,13.6064
2023-05-19T16:32:44.369Z,13.7348
2023-05-19T16:33:44.597Z,13.5165
2023-05-19T16:34:45.581Z,13.5246
2023-05-19T16:36:46.830Z,13.5337
2023-05-19T16:38:47.891Z,13.6131
2023-05-19T16:39:48.370Z,13.5883
2023-05-19T16:45:52.597Z,13.4355
2023-05-19T16:46:53.309Z,13.5082
2023-05-19T16:47:54.677Z,13.5692
2023-05-19T16:48:55.825Z,13.4555
2023-05-19T16:49:56.017Z,13.4320
2023-05-19T16:51:57.154Z,13.3802
2023-05-19T16:52:57.500Z,13.4417
2023-05-19T16:53:57.664Z,13.4081
2023-05-19T16:56:00.451Z,13.3215
2023-05-19T16:57:01.493Z,13.2302
2023-05-19T16:59:02.118Z,13.2435
2023-05-19T17:00:03.302Z,13.2451
2023-05-19T17:01:03.774Z,13.1649
2023-05-19T17:02:05.117Z,13.1368
2023-05-19T17:03:05.368Z,13.1621
2023-05-19T17:04:05.577Z,13.0901
2023-05-19T17:05:07.186Z,13.0079
2023-05-19T17:06:07.431Z,12.9612
2023-05-19T17:08:08.374Z,12.9473
2023-05-19T17:09:09.267Z,12.9120
2023-05-19T17:10:10.599Z,12.9172
2023-05-19T17:11:11.458Z,12.9104
2023-05-19T17:12:11.808Z,12.8406
2023-05-19T17:13:12.995Z,12.8534
2023-05-19T17:14:14.205Z,12.8128
2023-05-19T17:15:15.035Z,12.7992
2023-05-19T17:16:15.913Z,12.8092
2023-05-19T17:17:16.045Z,12.8330
2023-05-19T17:18:16.880Z,12.8158
2023-05-19T17:19:17.836Z,12.7948
2023-05-19T17:20:18.382Z,12.7443
2023-05-19T17:21:19.589Z,12.7147
2023-05-19T17:22:20.178Z,12.6701
2023-05-19T17:23:20.867Z,12.6463
2023-05-19T17:24:21.775Z,12.6831
2023-05-19T17:25:22.146Z,12.6838
2023-05-19T17:26:23.153Z,12.6713
2023-05-19T17:27:24.039Z,12.6748
2023-05-19T17:32:26.185Z,12.6787
2023-05-19T17:34:27.470Z,12.6399
2023-05-19T17:35:28.657Z,12.5072
2023-05-19T17:36:29.042Z,12.4441
2023-05-19T17:37:30.524Z,12.5126
2023-05-19T17:40:32.008Z,12.5685
2023-05-19T17:42:32.547Z,12.5522
2023-05-19T17:43:32.809Z,12.5405
2023-05-19T17:45:36.439Z,12.4901
2023-05-19T17:54:41.864Z,12.4190
2023-05-19T17:55:42.398Z,12.4095
2023-05-19T17:56:43.939Z,12.4109
2023-05-19T17:57:45.662Z,12.3890
2023-05-19T17:58:45.975Z,12.3630
2023-05-19T17:59:46.099Z,12.3294
2023-05-19T18:00:47.752Z,12.3476
2023-05-19T18:01:47.913Z,12.2813
2023-05-19T18:02:48.404Z,12.3405
2023-05-19T18:03:50.013Z,12.3317
2023-05-19T18:08:52.853Z,12.3114
2023-05-19T18:09:53.215Z,12.3320
2023-05-19T18:11:56.193Z,12.3007
2023-05-19T18:12:57.428Z,12.2559
2023-05-19T18:14:59.101Z,12.2112
2023-05-19T18:16:00.268Z,12.2381
2023-05-19T18:17:00.519Z,12.2328
2023-05-19T18:18:01.099Z,12.2595
2023-05-19T18:19:01.952Z,12.3063
2023-05-19T18:30:09.731Z,12.1662
2023-05-19T18:31:10.669Z,12.0772
2023-05-19T18:32:11.097Z,12.0724
2023-05-19T18:33:12.109Z,12.0517
2023-05-19T18:34:11.496Z,12.0724
2023-05-19T18:35:12.644Z,12.0424
2023-05-19T18:36:13.963Z,12.0523
2023-05-19T18:37:14.920Z,12.0829
2023-05-19T18:38:15.103Z,12.0398
2023-05-19T18:39:16.115Z,12.0161
2023-05-19T18:40:16.550Z,11.9860
2023-05-19T18:41:16.820Z,12.0533
2023-05-19T18:43:20.345Z,12.0180
2023-05-19T18:44:21.438Z,12.0328
2023-05-19T18:53:28.614Z,11.8915
2023-05-19T18:54:29.595Z,11.8872
2023-05-19T18:56:30.283Z,11.8625
2023-05-19T18:57:30.793Z,11.8554
2023-05-19T18:59:33.852Z,11.8813
2023-05-19T19:00:35.269Z,11.8886
2023-05-19T19:01:35.292Z,11.8391
2023-05-19T19:02:36.335Z,11.7547
2023-05-19T19:03:37.781Z,11.7084
2023-05-19T19:04:38.247Z,11.8100
2023-05-19T19:05:39.609Z,11.8111
2023-05-19T19:06:42.014Z,11.8148
2023-05-19T19:15:47.580Z,11.7007
2023-05-19T19:16:48.699Z,11.6741
2023-05-19T19:17:49.625Z,11.7283
2023-05-19T19:18:50.687Z,11.6612
2023-05-19T19:19:51.281Z,11.6961
2023-05-19T19:20:51.487Z,11.7099
2023-05-19T19:21:52.365Z,11.7262
2023-05-19T19:22:52.750Z,11.7340
2023-05-19T19:23:53.946Z,11.7057
2023-05-19T19:24:55.121Z,11.7032
2023-05-19T19:25:55.653Z,11.7285
2023-05-19T19:26:57.080Z,11.7025
2023-05-19T19:27:57.322Z,11.7592
2023-05-19T19:28:57.414Z,11.6752
2023-05-19T19:29:58.302Z,11.6356
2023-05-19T19:36:03.797Z,11.6454
2023-05-19T19:37:05.272Z,11.6438
2023-05-19T19:39:06.154Z,11.6503
2023-05-19T19:40:06.243Z,11.5941
2023-05-19T19:41:07.240Z,11.6232
2023-05-19T19:42:08.415Z,11.6652
2023-05-19T19:43:09.064Z,11.6610
2023-05-19T19:44:10.290Z,11.6358
2023-05-19T19:45:12.496Z,11.6116
2023-05-19T19:46:12.271Z,11.6182
2023-05-19T19:47:12.783Z,11.5870
2023-05-19T19:48:13.091Z,11.5351
2023-05-19T19:49:13.959Z,11.5579
2023-05-19T19:50:15.061Z,11.5232
2023-05-19T19:51:16.294Z,11.4918
2023-05-19T19:52:17.636Z,11.4274
2023-05-19T19:58:21.215Z,11.5022
2023-05-19T19:59:21.571Z,11.5197
2023-05-19T20:00:22.403Z,11.5427
2023-05-19T20:01:22.869Z,11.5284
2023-05-19T20:07:26.012Z,11.3967
2023-05-19T20:08:27.107Z,11.3877
2023-05-19T20:10:30.370Z,11.3896
2023-05-19T20:12:31.409Z,11.4075
2023-05-19T20:13:32.928Z,11.3943
2023-05-19T20:14:32.087Z,11.3750
2023-05-19T20:15:33.093Z,11.3958